sensor_id;sensor_type;location;lat;lon;timestamp;P1;durP1;ratioP1;P2;durP2;ratioP2
17147;SDS011;8689;47.364;8.796;2023-12-07T11:21:18;14.80;;;8.97;;
17147;SDS011;8689;47.364;8.796;2023-12-07T16:47:27;7.27;;;5.50;;
17147;SDS011;8689;47.364;8.796;2023-12-07T17:23:43;6.97;;;5.50;;
17147;SDS011;8689;47.364;8.796;2023-12-07T17:26:10;6.07;;;4.83;;
17147;SDS011;8689;47.364;8.796;2023-12-07T17:28:42;7.50;;;5.60;;
17147;SDS011;8689;47.364;8.796;2023-12-07T17:31:30;8.20;;;5.73;;
17147;SDS011;8689;47.364;8.796;2023-12-07T17:33:58;8.30;;;5.20;;
17147;SDS011;8689;47.364;8.796;2023-12-07T17:36:34;5.87;;;5.07;;
17147;SDS011;8689;47.364;8.796;2023-12-07T17:39:02;8.80;;;6.20;;
17147;SDS011;8689;47.364;8.796;2023-12-07T17:41:56;7.80;;;5.43;;
17147;SDS011;8689;47.364;8.796;2023-12-07T17:44:29;9.20;;;5.23;;
17147;SDS011;8689;47.364;8.796;2023-12-07T17:54:07;8.00;;;5.20;;
17147;SDS011;8689;47.364;8.796;2023-12-07T17:56:55;6.70;;;4.57;;
17147;SDS011;8689;47.364;8.796;2023-12-07T17:59:40;8.13;;;5.80;;
17147;SDS011;8689;47.364;8.796;2023-12-07T18:02:11;6.70;;;5.13;;
17147;SDS011;8689;47.364;8.796;2023-12-07T18:04:55;6.43;;;4.77;;
17147;SDS011;8689;47.364;8.796;2023-12-07T18:11:23;7.87;;;5.07;;
17147;SDS011;8689;47.364;8.796;2023-12-07T18:14:16;7.53;;;5.70;;
17147;SDS011;8689;47.364;8.796;2023-12-07T18:17:21;6.90;;;4.70;;
17147;SDS011;8689;47.364;8.796;2023-12-07T18:21:17;6.77;;;4.70;;
17147;SDS011;8689;47.364;8.796;2023-12-07T18:23:26;5.10;;;4.03;;
17147;SDS011;8689;47.364;8.796;2023-12-07T18:25:54;6.40;;;5.00;;
17147;SDS011;8689;47.364;8.796;2023-12-07T18:31:18;6.27;;;4.90;;
17147;SDS011;8689;47.364;8.796;2023-12-07T18:34:24;7.87;;;5.37;;
17147;SDS011;8689;47.364;8.796;2023-12-07T18:39:51;20.20;;;6.60;;
17147;SDS011;8689;47.364;8.796;2023-12-07T18:43:13;30.43;;;7.53;;
17147;SDS011;8689;47.364;8.796;2023-12-07T18:45:59;30.77;;;7.73;;
17147;SDS011;8689;47.364;8.796;2023-12-07T18:48:41;13.20;;;6.27;;
17147;SDS011;8689;47.364;8.796;2023-12-07T18:51:11;8.13;;;5.87;;
17147;SDS011;8689;47.364;8.796;2023-12-07T18:57:23;8.90;;;6.47;;
17147;SDS011;8689;47.364;8.796;2023-12-07T19:00:40;6.30;;;5.00;;
17147;SDS011;8689;47.364;8.796;2023-12-07T19:03:18;6.47;;;5.17;;
17147;SDS011;8689;47.364;8.796;2023-12-07T19:12:47;10.43;;;6.63;;
17147;SDS011;8689;47.364;8.796;2023-12-07T19:15:49;16.27;;;8.03;;
17147;SDS011;8689;47.364;8.796;2023-12-07T19:22:16;15.13;;;9.80;;
17147;SDS011;8689;47.364;8.796;2023-12-07T19:24:48;36.63;;;10.97;;
17147;SDS011;8689;47.364;8.796;2023-12-07T19:27:27;10.63;;;7.07;;
17147;SDS011;8689;47.364;8.796;2023-12-07T19:30:06;8.77;;;7.07;;
17147;SDS011;8689;47.364;8.796;2023-12-07T19:33:25;15.33;;;7.40;;
17147;SDS011;8689;47.364;8.796;2023-12-07T19:35:55;23.77;;;8.33;;
17147;SDS011;8689;47.364;8.796;2023-12-07T19:38:24;9.50;;;7.67;;
17147;SDS011;8689;47.364;8.796;2023-12-07T19:40:54;20.97;;;8.33;;
17147;SDS011;8689;47.364;8.796;2023-12-07T19:43:26;18.17;;;8.07;;
17147;SDS011;8689;47.364;8.796;2023-12-07T19:46:07;36.13;;;9.73;;
17147;SDS011;8689;47.364;8.796;2023-12-07T19:49:05;44.90;;;11.73;;
17147;SDS011;8689;47.364;8.796;2023-12-07T19:51:56;31.70;;;10.23;;
17147;SDS011;8689;47.364;8.796;2023-12-07T19:58:02;12.23;;;7.70;;
17147;SDS011;8689;47.364;8.796;2023-12-07T21:41:38;20.17;;;12.17;;
17147;SDS011;8689;47.364;8.796;2023-12-07T21:44:21;20.20;;;11.00;;
17147;SDS011;8689;47.364;8.796;2023-12-07T21:47:18;16.83;;;10.27;;
17147;SDS011;8689;47.364;8.796;2023-12-07T21:50:27;16.17;;;10.17;;
17147;SDS011;8689;47.364;8.796;2023-12-07T21:56:40;19.00;;;11.23;;
17147;SDS011;8689;47.364;8.796;2023-12-07T21:59:42;17.60;;;10.83;;
17147;SDS011;8689;47.364;8.796;2023-12-07T22:03:28;20.63;;;12.63;;
17147;SDS011;8689;47.364;8.796;2023-12-07T22:05:50;19.73;;;11.77;;
17147;SDS011;8689;47.364;8.796;2023-12-07T22:14:45;17.83;;;11.13;;
17147;SDS011;8689;47.364;8.796;2023-12-07T22:17:19;16.10;;;10.00;;
17147;SDS011;8689;47.364;8.796;2023-12-07T22:20:03;16.40;;;9.90;;
17147;SDS011;8689;47.364;8.796;2023-12-07T22:23:18;13.00;;;8.63;;
17147;SDS011;8689;47.364;8.796;2023-12-07T22:56:26;18.13;;;10.67;;
17147;SDS011;8689;47.364;8.796;2023-12-07T23:03:04;16.90;;;10.73;;
17147;SDS011;8689;47.364;8.796;2023-12-07T23:05:54;16.03;;;10.30;;
17147;SDS011;8689;47.364;8.796;2023-12-07T23:09:16;17.13;;;11.10;;
17147;SDS011;8689;47.364;8.796;2023-12-07T23:12:04;18.43;;;11.17;;
17147;SDS011;8689;47.364;8.796;2023-12-07T23:14:56;16.50;;;10.67;;
17147;SDS011;8689;47.364;8.796;2023-12-07T23:17:57;16.93;;;10.13;;
17147;SDS011;8689;47.364;8.796;2023-12-07T23:20:31;17.13;;;10.90;;
17147;SDS011;8689;47.364;8.796;2023-12-07T23:26:45;15.10;;;9.50;;
17147;SDS011;8689;47.364;8.796;2023-12-07T23:30:05;14.40;;;9.80;;
17147;SDS011;8689;47.364;8.796;2023-12-07T23:32:55;14.83;;;9.10;;
17147;SDS011;8689;47.364;8.796;2023-12-07T23:36:10;15.47;;;9.77;;
17147;SDS011;8689;47.364;8.796;2023-12-07T23:39:14;14.37;;;10.20;;
17147;SDS011;8689;47.364;8.796;2023-12-07T23:45:02;13.70;;;9.63;;
17147;SDS011;8689;47.364;8.796;2023-12-07T23:50:44;12.67;;;8.17;;
17147;SDS011;8689;47.364;8.796;2023-12-07T23:53:50;12.57;;;8.43;;
